sensor_id;sensor_type;location;lat;lon;timestamp;P1;durP1;ratioP1;P2;durP2;ratioP2
8462;SDS011;4268;52.506;13.462;2024-03-08T00:01:47;18.47;;;15.53;;
8462;SDS011;4268;52.506;13.462;2024-03-08T00:04:13;17.93;;;15.83;;
8462;SDS011;4268;52.506;13.462;2024-03-08T00:06:40;17.30;;;15.00;;
8462;SDS011;4268;52.506;13.462;2024-03-08T00:09:05;19.70;;;16.83;;
8462;SDS011;4268;52.506;13.462;2024-03-08T00:11:32;20.13;;;16.47;;
8462;SDS011;4268;52.506;13.462;2024-03-08T00:14:01;20.13;;;16.13;;
8462;SDS011;4268;52.506;13.462;2024-03-08T00:16:26;19.70;;;15.97;;
8462;SDS011;4268;52.506;13.462;2024-03-08T00:18:52;19.30;;;16.37;;
8462;SDS011;4268;52.506;13.462;2024-03-08T00:21:18;18.97;;;15.90;;
8462;SDS011;4268;52.506;13.462;2024-03-08T00:23:43;19.70;;;17.17;;
8462;SDS011;4268;52.506;13.462;2024-03-08T00:26:09;18.50;;;15.53;;
8462;SDS011;4268;52.506;13.462;2024-03-08T00:28:34;17.83;;;15.93;;
8462;SDS011;4268;52.506;13.462;2024-03-08T00:31:00;20.37;;;16.50;;
8462;SDS011;4268;52.506;13.462;2024-03-08T00:33:25;20.27;;;16.10;;
8462;SDS011;4268;52.506;13.462;2024-03-08T00:35:52;17.97;;;15.93;;
8462;SDS011;4268;52.506;13.462;2024-03-08T00:38:18;18.03;;;16.13;;
8462;SDS011;4268;52.506;13.462;2024-03-08T00:40:44;18.07;;;15.47;;
8462;SDS011;4268;52.506;13.462;2024-03-08T00:43:10;20.80;;;17.17;;
8462;SDS011;4268;52.506;13.462;2024-03-08T00:45:35;19.10;;;16.07;;
8462;SDS011;4268;52.506;13.462;2024-03-08T00:48:02;22.00;;;16.63;;
8462;SDS011;4268;52.506;13.462;2024-03-08T00:50:28;20.73;;;16.23;;
8462;SDS011;4268;52.506;13.462;2024-03-08T00:52:53;17.17;;;15.17;;
8462;SDS011;4268;52.506;13.462;2024-03-08T00:55:19;18.07;;;15.20;;
8462;SDS011;4268;52.506;13.462;2024-03-08T00:57:45;17.57;;;15.67;;
8462;SDS011;4268;52.506;13.462;2024-03-08T01:00:10;19.77;;;15.90;;
8462;SDS011;4268;52.506;13.462;2024-03-08T01:02:37;18.37;;;14.97;;
8462;SDS011;4268;52.506;13.462;2024-03-08T01:05:03;19.30;;;16.57;;
8462;SDS011;4268;52.506;13.462;2024-03-08T01:07:33;20.10;;;16.70;;
8462;SDS011;4268;52.506;13.462;2024-03-08T01:10:00;19.67;;;15.70;;
8462;SDS011;4268;52.506;13.462;2024-03-08T01:12:26;17.30;;;15.10;;
8462;SDS011;4268;52.506;13.462;2024-03-08T01:14:51;18.87;;;16.00;;
8462;SDS011;4268;52.506;13.462;2024-03-08T01:17:17;20.67;;;16.80;;
8462;SDS011;4268;52.506;13.462;2024-03-08T01:19:42;19.03;;;16.00;;
8462;SDS011;4268;52.506;13.462;2024-03-08T01:22:09;19.97;;;16.30;;
8462;SDS011;4268;52.506;13.462;2024-03-08T01:24:35;21.03;;;16.33;;
8462;SDS011;4268;52.506;13.462;2024-03-08T01:27:02;19.23;;;15.97;;
8462;SDS011;4268;52.506;13.462;2024-03-08T01:29:27;18.57;;;16.07;;
8462;SDS011;4268;52.506;13.462;2024-03-08T01:31:54;19.80;;;15.77;;
8462;SDS011;4268;52.506;13.462;2024-03-08T01:34:25;18.10;;;15.80;;
8462;SDS011;4268;52.506;13.462;2024-03-08T01:36:50;19.07;;;16.00;;
8462;SDS011;4268;52.506;13.462;2024-03-08T01:39:16;19.20;;;15.90;;
8462;SDS011;4268;52.506;13.462;2024-03-08T01:41:42;18.67;;;15.93;;
8462;SDS011;4268;52.506;13.462;2024-03-08T01:44:07;20.90;;;16.13;;
8462;SDS011;4268;52.506;13.462;2024-03-08T01:46:34;18.87;;;16.10;;
8462;SDS011;4268;52.506;13.462;2024-03-08T01:49:00;18.50;;;16.43;;
8462;SDS011;4268;52.506;13.462;2024-03-08T01:51:27;18.57;;;15.43;;
8462;SDS011;4268;52.506;13.462;2024-03-08T01:53:53;19.63;;;16.70;;
8462;SDS011;4268;52.506;13.462;2024-03-08T01:56:21;20.87;;;16.80;;
8462;SDS011;4268;52.506;13.462;2024-03-08T01:58:46;18.80;;;16.27;;
8462;SDS011;4268;52.506;13.462;2024-03-08T02:01:12;19.13;;;16.33;;
8462;SDS011;4268;52.506;13.462;2024-03-08T02:03:40;18.90;;;16.03;;
8462;SDS011;4268;52.506;13.462;2024-03-08T02:06:08;18.47;;;16.17;;
8462;SDS011;4268;52.506;13.462;2024-03-08T02:08:36;18.47;;;16.03;;
8462;SDS011;4268;52.506;13.462;2024-03-08T02:11:03;19.67;;;16.83;;
8462;SDS011;4268;52.506;13.462;2024-03-08T02:13:29;19.53;;;16.13;;
8462;SDS011;4268;52.506;13.462;2024-03-08T02:18:23;20.97;;;17.17;;
8462;SDS011;4268;52.506;13.462;2024-03-08T02:20:58;20.70;;;16.97;;
8462;SDS011;4268;52.506;13.462;2024-03-08T02:23:24;18.57;;;15.90;;
8462;SDS011;4268;52.506;13.462;2024-03-08T02:25:51;19.83;;;16.03;;
8462;SDS011;4268;52.506;13.462;2024-03-08T02:28:17;20.33;;;16.67;;
8462;SDS011;4268;52.506;13.462;2024-03-08T02:30:48;19.13;;;16.13;;
8462;SDS011;4268;52.506;13.462;2024-03-08T02:33:15;18.93;;;16.50;;
8462;SDS011;4268;52.506;13.462;2024-03-08T02:35:42;19.10;;;17.07;;
8462;SDS011;4268;52.506;13.462;2024-03-08T02:38:12;20.13;;;16.73;;
8462;SDS011;4268;52.506;13.462;2024-03-08T02:40:41;20.37;;;16.30;;
8462;SDS011;4268;52.506;13.462;2024-03-08T02:43:11;20.00;;;16.83;;
8462;SDS011;4268;52.506;13.462;2024-03-08T02:45:37;20.67;;;17.80;;
8462;SDS011;4268;52.506;13.462;2024-03-08T02:48:03;21.80;;;17.20;;
8462;SDS011;4268;52.506;13.462;2024-03-08T02:50:29;20.30;;;16.40;;
8462;SDS011;4268;52.506;13.462;2024-03-08T02:52:55;20.83;;;16.83;;
8462;SDS011;4268;52.506;13.462;2024-03-08T02:55:21;22.37;;;16.50;;
8462;SDS011;4268;52.506;13.462;2024-03-08T02:57:46;21.97;;;17.57;;
8462;SDS011;4268;52.506;13.462;2024-03-08T03:00:12;19.70;;;16.47;;
8462;SDS011;4268;52.506;13.462;2024-03-08T03:02:38;18.77;;;15.90;;
8462;SDS011;4268;52.506;13.462;2024-03-08T03:05:04;21.70;;;17.13;;
8462;SDS011;4268;52.506;13.462;2024-03-08T03:07:31;22.37;;;17.37;;
8462;SDS011;4268;52.506;13.462;2024-03-08T03:09:58;22.43;;;17.33;;
8462;SDS011;4268;52.506;13.462;2024-03-08T03:12:25;21.37;;;16.60;;
8462;SDS011;4268;52.506;13.462;2024-03-08T03:14:52;21.90;;;17.70;;
8462;SDS011;4268;52.506;13.462;2024-03-08T03:17:18;21.87;;;18.47;;
8462;SDS011;4268;52.506;13.462;2024-03-08T03:19:43;24.23;;;18.67;;
8462;SDS011;4268;52.506;13.462;2024-03-08T03:22:09;21.30;;;17.27;;
8462;SDS011;4268;52.506;13.462;2024-03-08T03:24:35;21.30;;;17.10;;
8462;SDS011;4268;52.506;13.462;2024-03-08T03:27:03;22.37;;;18.07;;
8462;SDS011;4268;52.506;13.462;2024-03-08T03:29:35;23.50;;;18.47;;
8462;SDS011;4268;52.506;13.462;2024-03-08T03:32:10;21.70;;;17.63;;
8462;SDS011;4268;52.506;13.462;2024-03-08T03:34:36;22.27;;;17.87;;
8462;SDS011;4268;52.506;13.462;2024-03-08T03:37:03;26.30;;;19.60;;
8462;SDS011;4268;52.506;13.462;2024-03-08T03:39:29;21.97;;;17.90;;
8462;SDS011;4268;52.506;13.462;2024-03-08T03:41:57;20.90;;;18.13;;
8462;SDS011;4268;52.506;13.462;2024-03-08T03:44:23;24.83;;;19.63;;
8462;SDS011;4268;52.506;13.462;2024-03-08T03:46:48;23.33;;;18.43;;
8462;SDS011;4268;52.506;13.462;2024-03-08T03:49:15;21.10;;;17.07;;
8462;SDS011;4268;52.506;13.462;2024-03-08T03:51:42;22.17;;;18.57;;
8462;SDS011;4268;52.506;13.462;2024-03-08T03:54:09;22.60;;;19.03;;
8462;SDS011;4268;52.506;13.462;2024-03-08T03:56:35;25.40;;;18.90;;
8462;SDS011;4268;52.506;13.462;2024-03-08T03:59:00;24.43;;;18.77;;
8462;SDS011;4268;52.506;13.462;2024-03-08T04:01:26;23.63;;;18.33;;
8462;SDS011;4268;52.506;13.462;2024-03-08T04:03:51;22.53;;;18.90;;
8462;SDS011;4268;52.506;13.462;2024-03-08T04:06:17;24.70;;;19.20;;
8462;SDS011;4268;52.506;13.462;2024-03-08T04:08:42;23.87;;;19.27;;
8462;SDS011;4268;52.506;13.462;2024-03-08T04:11:08;26.43;;;20.07;;
8462;SDS011;4268;52.506;13.462;2024-03-08T04:13:34;23.30;;;19.13;;
8462;SDS011;4268;52.506;13.462;2024-03-08T04:16:01;24.80;;;20.30;;
8462;SDS011;4268;52.506;13.462;2024-03-08T04:18:27;23.90;;;19.53;;
8462;SDS011;4268;52.506;13.462;2024-03-08T04:20:53;23.70;;;20.37;;
8462;SDS011;4268;52.506;13.462;2024-03-08T04:23:18;25.23;;;20.67;;
8462;SDS011;4268;52.506;13.462;2024-03-08T04:25:44;25.53;;;20.53;;
8462;SDS011;4268;52.506;13.462;2024-03-08T04:28:10;24.67;;;19.70;;
8462;SDS011;4268;52.506;13.462;2024-03-08T04:30:36;24.43;;;20.17;;
8462;SDS011;4268;52.506;13.462;2024-03-08T04:33:03;26.63;;;19.70;;
8462;SDS011;4268;52.506;13.462;2024-03-08T04:35:28;23.30;;;18.90;;
8462;SDS011;4268;52.506;13.462;2024-03-08T04:37:55;23.53;;;19.03;;
8462;SDS011;4268;52.506;13.462;2024-03-08T04:40:22;24.27;;;19.93;;
8462;SDS011;4268;52.506;13.462;2024-03-08T04:42:48;24.17;;;18.93;;
8462;SDS011;4268;52.506;13.462;2024-03-08T04:45:16;27.13;;;20.37;;
8462;SDS011;4268;52.506;13.462;2024-03-08T04:47:42;24.77;;;19.53;;
8462;SDS011;4268;52.506;13.462;2024-03-08T04:50:08;27.07;;;21.33;;
8462;SDS011;4268;52.506;13.462;2024-03-08T04:52:34;25.87;;;19.50;;
8462;SDS011;4268;52.506;13.462;2024-03-08T04:55:00;24.80;;;20.20;;
8462;SDS011;4268;52.506;13.462;2024-03-08T04:57:29;27.80;;;20.07;;
8462;SDS011;4268;52.506;13.462;2024-03-08T04:59:54;24.60;;;20.10;;
8462;SDS011;4268;52.506;13.462;2024-03-08T05:02:20;24.77;;;19.93;;
8462;SDS011;4268;52.506;13.462;2024-03-08T05:04:47;25.70;;;21.00;;
8462;SDS011;4268;52.506;13.462;2024-03-08T05:07:13;24.63;;;19.53;;
8462;SDS011;4268;52.506;13.462;2024-03-08T05:09:38;26.03;;;20.50;;
8462;SDS011;4268;52.506;13.462;2024-03-08T05:12:06;24.20;;;19.93;;
8462;SDS011;4268;52.506;13.462;2024-03-08T05:14:32;28.17;;;20.93;;
8462;SDS011;4268;52.506;13.462;2024-03-08T05:16:59;24.60;;;20.10;;
8462;SDS011;4268;52.506;13.462;2024-03-08T05:19:25;24.47;;;20.33;;
8462;SDS011;4268;52.506;13.462;2024-03-08T05:21:51;26.57;;;21.43;;
8462;SDS011;4268;52.506;13.462;2024-03-08T05:24:17;27.77;;;20.73;;
8462;SDS011;4268;52.506;13.462;2024-03-08T05:26:42;27.03;;;21.03;;
8462;SDS011;4268;52.506;13.462;2024-03-08T05:29:08;26.13;;;21.27;;
8462;SDS011;4268;52.506;13.462;2024-03-08T05:31:50;26.87;;;21.43;;
8462;SDS011;4268;52.506;13.462;2024-03-08T05:34:17;29.77;;;22.70;;
8462;SDS011;4268;52.506;13.462;2024-03-08T05:36:44;26.97;;;21.50;;
8462;SDS011;4268;52.506;13.462;2024-03-08T05:39:11;26.60;;;21.80;;
8462;SDS011;4268;52.506;13.462;2024-03-08T05:41:41;24.77;;;20.43;;
8462;SDS011;4268;52.506;13.462;2024-03-08T05:44:07;24.67;;;20.87;;
8462;SDS011;4268;52.506;13.462;2024-03-08T05:46:33;26.90;;;21.67;;
8462;SDS011;4268;52.506;13.462;2024-03-08T05:49:00;28.10;;;21.87;;
8462;SDS011;4268;52.506;13.462;2024-03-08T05:51:30;25.33;;;21.23;;
8462;SDS011;4268;52.506;13.462;2024-03-08T05:54:02;26.07;;;22.23;;
8462;SDS011;4268;52.506;13.462;2024-03-08T05:56:28;27.27;;;22.43;;
8462;SDS011;4268;52.506;13.462;2024-03-08T05:58:54;26.87;;;22.30;;
8462;SDS011;4268;52.506;13.462;2024-03-08T06:01:19;26.47;;;22.53;;
8462;SDS011;4268;52.506;13.462;2024-03-08T06:03:45;28.83;;;23.70;;
8462;SDS011;4268;52.506;13.462;2024-03-08T06:06:12;30.40;;;22.40;;
8462;SDS011;4268;52.506;13.462;2024-03-08T06:08:38;27.27;;;21.47;;
8462;SDS011;4268;52.506;13.462;2024-03-08T06:11:03;28.40;;;21.80;;
8462;SDS011;4268;52.506;13.462;2024-03-08T06:13:31;27.20;;;21.43;;
8462;SDS011;4268;52.506;13.462;2024-03-08T06:15:56;26.67;;;21.83;;
8462;SDS011;4268;52.506;13.462;2024-03-08T06:18:22;27.43;;;21.37;;
8462;SDS011;4268;52.506;13.462;2024-03-08T06:20:48;27.37;;;22.10;;
8462;SDS011;4268;52.506;13.462;2024-03-08T06:23:13;25.43;;;22.13;;
8462;SDS011;4268;52.506;13.462;2024-03-08T06:25:42;26.43;;;20.83;;
8462;SDS011;4268;52.506;13.462;2024-03-08T06:28:08;28.90;;;22.10;;
8462;SDS011;4268;52.506;13.462;2024-03-08T06:30:34;29.03;;;22.23;;
8462;SDS011;4268;52.506;13.462;2024-03-08T06:32:59;28.10;;;21.63;;
8462;SDS011;4268;52.506;13.462;2024-03-08T06:35:25;28.40;;;21.50;;
8462;SDS011;4268;52.506;13.462;2024-03-08T06:37:51;28.43;;;22.37;;
8462;SDS011;4268;52.506;13.462;2024-03-08T06:40:16;29.03;;;22.93;;
8462;SDS011;4268;52.506;13.462;2024-03-08T06:42:42;27.70;;;22.37;;
8462;SDS011;4268;52.506;13.462;2024-03-08T06:45:08;29.60;;;22.93;;
8462;SDS011;4268;52.506;13.462;2024-03-08T06:47:35;29.00;;;22.87;;
8462;SDS011;4268;52.506;13.462;2024-03-08T06:50:01;26.57;;;21.87;;
8462;SDS011;4268;52.506;13.462;2024-03-08T06:52:26;25.80;;;21.70;;
8462;SDS011;4268;52.506;13.462;2024-03-08T06:54:52;24.57;;;20.13;;
8462;SDS011;4268;52.506;13.462;2024-03-08T06:57:18;24.60;;;20.87;;
8462;SDS011;4268;52.506;13.462;2024-03-08T06:59:47;22.13;;;19.37;;
8462;SDS011;4268;52.506;13.462;2024-03-08T07:02:13;22.17;;;19.17;;
8462;SDS011;4268;52.506;13.462;2024-03-08T07:04:38;22.73;;;19.10;;
8462;SDS011;4268;52.506;13.462;2024-03-08T07:07:04;21.80;;;18.60;;
8462;SDS011;4268;52.506;13.462;2024-03-08T07:09:30;20.70;;;18.50;;
8462;SDS011;4268;52.506;13.462;2024-03-08T07:11:55;21.00;;;18.77;;
8462;SDS011;4268;52.506;13.462;2024-03-08T07:14:21;20.00;;;17.80;;
8462;SDS011;4268;52.506;13.462;2024-03-08T07:16:47;20.57;;;18.37;;
8462;SDS011;4268;52.506;13.462;2024-03-08T07:19:13;19.20;;;17.20;;
8462;SDS011;4268;52.506;13.462;2024-03-08T07:21:40;20.13;;;18.03;;
8462;SDS011;4268;52.506;13.462;2024-03-08T07:24:07;20.57;;;18.47;;
8462;SDS011;4268;52.506;13.462;2024-03-08T07:26:41;19.60;;;17.60;;
8462;SDS011;4268;52.506;13.462;2024-03-08T07:29:07;19.70;;;17.73;;
8462;SDS011;4268;52.506;13.462;2024-03-08T07:31:33;19.93;;;17.93;;
8462;SDS011;4268;52.506;13.462;2024-03-08T07:34:17;19.90;;;17.80;;
8462;SDS011;4268;52.506;13.462;2024-03-08T07:36:43;19.33;;;17.27;;
8462;SDS011;4268;52.506;13.462;2024-03-08T07:39:08;19.70;;;17.83;;
8462;SDS011;4268;52.506;13.462;2024-03-08T07:41:37;18.33;;;16.53;;
8462;SDS011;4268;52.506;13.462;2024-03-08T07:44:05;19.40;;;17.50;;
8462;SDS011;4268;52.506;13.462;2024-03-08T07:46:31;19.30;;;17.40;;
8462;SDS011;4268;52.506;13.462;2024-03-08T07:48:59;19.70;;;17.73;;
8462;SDS011;4268;52.506;13.462;2024-03-08T07:51:24;18.90;;;17.00;;
8462;SDS011;4268;52.506;13.462;2024-03-08T07:53:50;19.90;;;17.90;;
8462;SDS011;4268;52.506;13.462;2024-03-08T07:56:16;18.93;;;17.03;;
8462;SDS011;4268;52.506;13.462;2024-03-08T07:58:43;18.90;;;16.93;;
8462;SDS011;4268;52.506;13.462;2024-03-08T08:01:15;20.27;;;18.17;;
8462;SDS011;4268;52.506;13.462;2024-03-08T08:03:44;19.63;;;17.63;;
8462;SDS011;4268;52.506;13.462;2024-03-08T08:06:10;20.07;;;17.97;;
8462;SDS011;4268;52.506;13.462;2024-03-08T08:08:41;20.10;;;18.00;;
8462;SDS011;4268;52.506;13.462;2024-03-08T08:11:07;21.10;;;18.40;;
8462;SDS011;4268;52.506;13.462;2024-03-08T08:13:33;19.93;;;17.83;;
8462;SDS011;4268;52.506;13.462;2024-03-08T08:15:59;20.97;;;18.70;;
8462;SDS011;4268;52.506;13.462;2024-03-08T08:18:26;20.87;;;18.03;;
8462;SDS011;4268;52.506;13.462;2024-03-08T08:20:51;20.13;;;17.93;;
8462;SDS011;4268;52.506;13.462;2024-03-08T08:23:20;20.77;;;18.57;;
8462;SDS011;4268;52.506;13.462;2024-03-08T08:25:46;20.83;;;17.63;;
8462;SDS011;4268;52.506;13.462;2024-03-08T08:28:14;21.43;;;18.40;;
8462;SDS011;4268;52.506;13.462;2024-03-08T08:30:42;20.47;;;17.63;;
8462;SDS011;4268;52.506;13.462;2024-03-08T08:33:08;20.83;;;17.87;;
8462;SDS011;4268;52.506;13.462;2024-03-08T08:35:34;20.67;;;17.60;;
8462;SDS011;4268;52.506;13.462;2024-03-08T08:37:59;18.93;;;16.80;;
8462;SDS011;4268;52.506;13.462;2024-03-08T08:40:25;21.57;;;18.00;;
8462;SDS011;4268;52.506;13.462;2024-03-08T08:42:54;19.83;;;17.03;;
8462;SDS011;4268;52.506;13.462;2024-03-08T08:45:22;20.80;;;17.57;;
8462;SDS011;4268;52.506;13.462;2024-03-08T08:47:48;19.77;;;16.67;;
8462;SDS011;4268;52.506;13.462;2024-03-08T08:50:14;19.93;;;17.60;;
8462;SDS011;4268;52.506;13.462;2024-03-08T08:52:41;21.23;;;17.83;;
8462;SDS011;4268;52.506;13.462;2024-03-08T08:55:09;20.10;;;17.67;;
8462;SDS011;4268;52.506;13.462;2024-03-08T08:57:39;20.20;;;18.07;;
8462;SDS011;4268;52.506;13.462;2024-03-08T09:00:05;20.30;;;17.97;;
8462;SDS011;4268;52.506;13.462;2024-03-08T09:02:32;22.17;;;17.97;;
8462;SDS011;4268;52.506;13.462;2024-03-08T09:05:02;21.77;;;17.87;;
8462;SDS011;4268;52.506;13.462;2024-03-08T09:07:27;21.67;;;18.63;;
8462;SDS011;4268;52.506;13.462;2024-03-08T09:09:53;20.23;;;17.57;;
8462;SDS011;4268;52.506;13.462;2024-03-08T09:12:23;21.20;;;18.37;;
8462;SDS011;4268;52.506;13.462;2024-03-08T09:14:49;20.57;;;17.50;;
8462;SDS011;4268;52.506;13.462;2024-03-08T09:17:15;20.03;;;17.60;;
8462;SDS011;4268;52.506;13.462;2024-03-08T09:19:48;20.53;;;17.80;;
8462;SDS011;4268;52.506;13.462;2024-03-08T09:22:14;20.20;;;17.13;;
8462;SDS011;4268;52.506;13.462;2024-03-08T09:24:40;19.40;;;17.20;;
8462;SDS011;4268;52.506;13.462;2024-03-08T09:27:08;20.70;;;18.43;;
8462;SDS011;4268;52.506;13.462;2024-03-08T09:29:34;21.17;;;18.87;;
8462;SDS011;4268;52.506;13.462;2024-03-08T09:32:00;20.60;;;18.37;;
8462;SDS011;4268;52.506;13.462;2024-03-08T09:34:26;20.50;;;18.30;;
8462;SDS011;4268;52.506;13.462;2024-03-08T09:36:51;20.63;;;18.03;;
8462;SDS011;4268;52.506;13.462;2024-03-08T09:39:17;19.17;;;17.03;;
8462;SDS011;4268;52.506;13.462;2024-03-08T09:41:45;19.73;;;17.73;;
8462;SDS011;4268;52.506;13.462;2024-03-08T09:44:13;22.60;;;18.37;;
8462;SDS011;4268;52.506;13.462;2024-03-08T09:46:39;19.90;;;17.77;;
8462;SDS011;4268;52.506;13.462;2024-03-08T09:49:05;20.27;;;17.37;;
8462;SDS011;4268;52.506;13.462;2024-03-08T09:51:32;19.30;;;17.20;;
8462;SDS011;4268;52.506;13.462;2024-03-08T09:53:59;18.77;;;16.87;;
8462;SDS011;4268;52.506;13.462;2024-03-08T09:56:25;20.43;;;16.60;;
8462;SDS011;4268;52.506;13.462;2024-03-08T09:58:52;19.00;;;17.00;;
8462;SDS011;4268;52.506;13.462;2024-03-08T10:01:53;18.90;;;16.87;;
8462;SDS011;4268;52.506;13.462;2024-03-08T10:04:21;18.87;;;15.90;;
8462;SDS011;4268;52.506;13.462;2024-03-08T10:06:47;19.93;;;16.83;;
8462;SDS011;4268;52.506;13.462;2024-03-08T10:09:13;21.93;;;16.57;;
8462;SDS011;4268;52.506;13.462;2024-03-08T10:11:42;17.37;;;15.57;;
8462;SDS011;4268;52.506;13.462;2024-03-08T10:14:08;18.37;;;16.17;;
8462;SDS011;4268;52.506;13.462;2024-03-08T10:16:34;17.80;;;15.90;;
8462;SDS011;4268;52.506;13.462;2024-03-08T10:19:00;18.73;;;16.03;;
8462;SDS011;4268;52.506;13.462;2024-03-08T10:21:26;19.37;;;16.63;;
8462;SDS011;4268;52.506;13.462;2024-03-08T10:23:52;17.77;;;14.73;;
8462;SDS011;4268;52.506;13.462;2024-03-08T10:26:18;18.50;;;15.47;;
8462;SDS011;4268;52.506;13.462;2024-03-08T10:28:47;19.40;;;15.87;;
8462;SDS011;4268;52.506;13.462;2024-03-08T10:31:13;17.93;;;15.30;;
8462;SDS011;4268;52.506;13.462;2024-03-08T10:33:40;17.17;;;15.37;;
8462;SDS011;4268;52.506;13.462;2024-03-08T10:36:08;16.83;;;15.03;;
8462;SDS011;4268;52.506;13.462;2024-03-08T10:38:38;15.80;;;14.03;;
8462;SDS011;4268;52.506;13.462;2024-03-08T10:41:05;15.77;;;14.10;;
8462;SDS011;4268;52.506;13.462;2024-03-08T10:43:32;15.63;;;14.03;;
8462;SDS011;4268;52.506;13.462;2024-03-08T10:46:40;15.37;;;13.77;;
8462;SDS011;4268;52.506;13.462;2024-03-08T10:49:37;15.43;;;13.83;;
8462;SDS011;4268;52.506;13.462;2024-03-08T10:52:06;16.60;;;14.90;;
8462;SDS011;4268;52.506;13.462;2024-03-08T10:54:33;16.10;;;14.43;;
8462;SDS011;4268;52.506;13.462;2024-03-08T10:57:03;15.97;;;14.20;;
8462;SDS011;4268;52.506;13.462;2024-03-08T10:59:30;16.87;;;14.70;;
8462;SDS011;4268;52.506;13.462;2024-03-08T11:01:58;16.37;;;14.60;;
8462;SDS011;4268;52.506;13.462;2024-03-08T11:04:24;15.73;;;14.13;;
8462;SDS011;4268;52.506;13.462;2024-03-08T11:06:50;16.10;;;14.40;;
8462;SDS011;4268;52.506;13.462;2024-03-08T11:14:47;15.27;;;13.67;;
8462;SDS011;4268;52.506;13.462;2024-03-08T11:17:16;17.03;;;14.17;;
8462;SDS011;4268;52.506;13.462;2024-03-08T11:19:46;17.33;;;14.00;;
8462;SDS011;4268;52.506;13.462;2024-03-08T11:22:22;14.83;;;13.27;;
8462;SDS011;4268;52.506;13.462;2024-03-08T11:24:52;15.20;;;13.60;;
8462;SDS011;4268;52.506;13.462;2024-03-08T11:27:18;16.47;;;14.77;;
8462;SDS011;4268;52.506;13.462;2024-03-08T11:29:46;14.33;;;12.83;;
8462;SDS011;4268;52.506;13.462;2024-03-08T11:32:27;16.13;;;13.50;;
8462;SDS011;4268;52.506;13.462;2024-03-08T11:34:54;14.97;;;13.47;;
8462;SDS011;4268;52.506;13.462;2024-03-08T11:37:20;15.10;;;13.00;;
8462;SDS011;4268;52.506;13.462;2024-03-08T11:42:16;15.47;;;13.97;;
8462;SDS011;4268;52.506;13.462;2024-03-08T11:44:43;14.33;;;12.83;;
8462;SDS011;4268;52.506;13.462;2024-03-08T11:47:12;15.17;;;13.67;;
8462;SDS011;4268;52.506;13.462;2024-03-08T11:49:39;15.47;;;13.77;;
8462;SDS011;4268;52.506;13.462;2024-03-08T11:52:10;17.17;;;14.23;;
8462;SDS011;4268;52.506;13.462;2024-03-08T11:54:37;16.40;;;14.70;;
8462;SDS011;4268;52.506;13.462;2024-03-08T11:57:04;16.17;;;14.43;;
8462;SDS011;4268;52.506;13.462;2024-03-08T11:59:29;16.23;;;14.53;;
8462;SDS011;4268;52.506;13.462;2024-03-08T12:02:02;14.90;;;13.37;;
8462;SDS011;4268;52.506;13.462;2024-03-08T12:04:29;16.70;;;15.00;;
8462;SDS011;4268;52.506;13.462;2024-03-08T12:06:56;15.27;;;13.73;;
8462;SDS011;4268;52.506;13.462;2024-03-08T12:09:24;15.30;;;13.80;;
8462;SDS011;4268;52.506;13.462;2024-03-08T12:11:50;15.90;;;13.80;;
8462;SDS011;4268;52.506;13.462;2024-03-08T12:14:16;16.43;;;14.70;;
8462;SDS011;4268;52.506;13.462;2024-03-08T12:16:42;16.83;;;14.10;;
8462;SDS011;4268;52.506;13.462;2024-03-08T12:19:08;15.57;;;13.23;;
8462;SDS011;4268;52.506;13.462;2024-03-08T12:21:35;15.60;;;13.53;;
8462;SDS011;4268;52.506;13.462;2024-03-08T12:24:02;16.13;;;14.23;;
8462;SDS011;4268;52.506;13.462;2024-03-08T12:26:29;16.03;;;14.37;;
8462;SDS011;4268;52.506;13.462;2024-03-08T12:29:13;15.47;;;13.97;;
8462;SDS011;4268;52.506;13.462;2024-03-08T12:31:42;14.53;;;13.03;;
8462;SDS011;4268;52.506;13.462;2024-03-08T12:34:07;15.63;;;13.93;;
8462;SDS011;4268;52.506;13.462;2024-03-08T12:36:35;14.70;;;13.23;;
8462;SDS011;4268;52.506;13.462;2024-03-08T12:39:01;15.57;;;13.97;;
8462;SDS011;4268;52.506;13.462;2024-03-08T12:41:28;15.33;;;13.80;;
8462;SDS011;4268;52.506;13.462;2024-03-08T12:43:54;15.77;;;14.07;;
8462;SDS011;4268;52.506;13.462;2024-03-08T12:46:21;15.70;;;14.20;;
8462;SDS011;4268;52.506;13.462;2024-03-08T12:48:55;14.00;;;12.60;;
8462;SDS011;4268;52.506;13.462;2024-03-08T12:51:20;14.37;;;12.87;;
8462;SDS011;4268;52.506;13.462;2024-03-08T12:53:46;15.10;;;13.50;;
8462;SDS011;4268;52.506;13.462;2024-03-08T12:56:12;15.43;;;13.83;;
8462;SDS011;4268;52.506;13.462;2024-03-08T12:58:39;14.33;;;12.83;;
8462;SDS011;4268;52.506;13.462;2024-03-08T13:01:06;15.57;;;13.90;;
8462;SDS011;4268;52.506;13.462;2024-03-08T13:03:33;14.00;;;12.60;;
8462;SDS011;4268;52.506;13.462;2024-03-08T13:06:00;15.30;;;13.10;;
8462;SDS011;4268;52.506;13.462;2024-03-08T13:08:27;15.30;;;13.77;;
8462;SDS011;4268;52.506;13.462;2024-03-08T13:10:54;14.63;;;13.13;;
8462;SDS011;4268;52.506;13.462;2024-03-08T13:13:20;14.83;;;13.33;;
8462;SDS011;4268;52.506;13.462;2024-03-08T13:15:45;14.90;;;13.37;;
8462;SDS011;4268;52.506;13.462;2024-03-08T13:18:11;14.70;;;13.30;;
8462;SDS011;4268;52.506;13.462;2024-03-08T13:20:36;15.13;;;13.53;;
8462;SDS011;4268;52.506;13.462;2024-03-08T13:23:03;14.23;;;12.80;;
8462;SDS011;4268;52.506;13.462;2024-03-08T13:25:30;13.80;;;12.50;;
8462;SDS011;4268;52.506;13.462;2024-03-08T13:27:56;14.63;;;13.13;;
8462;SDS011;4268;52.506;13.462;2024-03-08T13:30:24;14.13;;;12.73;;
8462;SDS011;4268;52.506;13.462;2024-03-08T13:32:51;14.33;;;12.83;;
8462;SDS011;4268;52.506;13.462;2024-03-08T13:35:18;14.47;;;12.97;;
8462;SDS011;4268;52.506;13.462;2024-03-08T13:37:49;14.30;;;12.93;;
8462;SDS011;4268;52.506;13.462;2024-03-08T13:40:16;14.53;;;13.03;;
8462;SDS011;4268;52.506;13.462;2024-03-08T13:42:45;14.27;;;12.87;;
8462;SDS011;4268;52.506;13.462;2024-03-08T13:45:11;13.13;;;11.90;;
8462;SDS011;4268;52.506;13.462;2024-03-08T13:47:38;13.73;;;11.80;;
8462;SDS011;4268;52.506;13.462;2024-03-08T13:50:07;13.67;;;11.83;;
8462;SDS011;4268;52.506;13.462;2024-03-08T13:52:37;13.50;;;12.20;;
8462;SDS011;4268;52.506;13.462;2024-03-08T13:55:03;13.70;;;11.30;;
8462;SDS011;4268;52.506;13.462;2024-03-08T13:57:30;14.00;;;12.57;;
8462;SDS011;4268;52.506;13.462;2024-03-08T13:59:57;13.90;;;11.67;;
8462;SDS011;4268;52.506;13.462;2024-03-08T14:02:22;13.20;;;11.80;;
8462;SDS011;4268;52.506;13.462;2024-03-08T14:04:52;13.57;;;12.03;;
8462;SDS011;4268;52.506;13.462;2024-03-08T14:07:19;12.77;;;11.47;;
8462;SDS011;4268;52.506;13.462;2024-03-08T14:09:48;14.70;;;11.70;;
8462;SDS011;4268;52.506;13.462;2024-03-08T14:12:17;13.40;;;12.10;;
8462;SDS011;4268;52.506;13.462;2024-03-08T14:14:43;14.50;;;12.70;;
8462;SDS011;4268;52.506;13.462;2024-03-08T14:17:09;14.37;;;12.93;;
8462;SDS011;4268;52.506;13.462;2024-03-08T14:19:36;14.43;;;12.93;;
8462;SDS011;4268;52.506;13.462;2024-03-08T14:22:04;14.13;;;12.63;;
8462;SDS011;4268;52.506;13.462;2024-03-08T14:24:30;13.80;;;12.40;;
8462;SDS011;4268;52.506;13.462;2024-03-08T14:26:56;14.20;;;12.80;;
8462;SDS011;4268;52.506;13.462;2024-03-08T14:29:23;13.33;;;11.93;;
8462;SDS011;4268;52.506;13.462;2024-03-08T14:31:52;13.27;;;11.93;;
8462;SDS011;4268;52.506;13.462;2024-03-08T14:34:18;14.00;;;12.60;;
8462;SDS011;4268;52.506;13.462;2024-03-08T14:36:45;14.33;;;12.93;;
8462;SDS011;4268;52.506;13.462;2024-03-08T14:39:10;13.80;;;12.07;;
8462;SDS011;4268;52.506;13.462;2024-03-08T14:41:36;13.20;;;11.80;;
8462;SDS011;4268;52.506;13.462;2024-03-08T14:44:01;12.87;;;11.37;;